createdAt,value
2023-03-30T00:01:05.610Z,2.57
2023-03-30T00:03:33.696Z,2.13
2023-03-30T00:06:06.070Z,3.13
2023-03-30T00:08:33.972Z,2.40
2023-03-30T00:11:02.378Z,2.47
2023-03-30T00:13:32.403Z,2.70
2023-03-30T00:16:00.442Z,2.93
2023-03-30T00:18:29.551Z,2.40
2023-03-30T00:20:58.322Z,2.37
2023-03-30T00:23:26.081Z,2.43
2023-03-30T00:25:53.748Z,2.20
2023-03-30T00:28:21.418Z,2.40
2023-03-30T00:30:50.469Z,2.57
2023-03-30T00:33:18.076Z,2.13
2023-03-30T00:35:52.966Z,2.60
2023-03-30T00:38:21.923Z,2.57
2023-03-30T00:40:52.596Z,2.50
2023-03-30T00:43:20.909Z,2.30
2023-03-30T00:45:50.827Z,2.97
2023-03-30T00:48:20.682Z,2.33
2023-03-30T00:50:51.229Z,2.90
2023-03-30T00:53:21.984Z,2.50
2023-03-30T00:55:51.933Z,2.43
2023-03-30T00:58:21.169Z,2.40
2023-03-30T01:00:50.681Z,2.60
2023-03-30T01:03:21.312Z,3.10
2023-03-30T01:05:50.007Z,2.47
2023-03-30T01:08:18.244Z,2.70
2023-03-30T01:10:46.369Z,2.27
2023-03-30T01:13:14.964Z,2.47
2023-03-30T01:15:58.748Z,2.40
2023-03-30T01:18:33.169Z,2.73
2023-03-30T01:21:55.696Z,2.77
2023-03-30T01:24:55.885Z,2.43
2023-03-30T01:27:49.685Z,2.47
2023-03-30T01:30:40.117Z,2.33
2023-03-30T01:33:38.413Z,2.33
2023-03-30T01:36:23.407Z,2.30
2023-03-30T01:39:13.974Z,2.90
2023-03-30T01:41:48.894Z,2.30
2023-03-30T01:44:21.861Z,2.60
2023-03-30T01:46:52.847Z,2.53
2023-03-30T01:49:25.347Z,2.40
2023-03-30T01:51:59.398Z,2.43
2023-03-30T01:54:32.851Z,2.50
2023-03-30T01:57:04.980Z,2.63
2023-03-30T01:59:36.833Z,2.70
2023-03-30T02:02:09.071Z,2.30
2023-03-30T02:04:40.362Z,2.67
2023-03-30T02:07:11.111Z,2.90
2023-03-30T02:09:41.342Z,2.53
2023-03-30T02:12:10.860Z,2.77
2023-03-30T02:14:39.578Z,2.40
2023-03-30T02:17:11.351Z,2.20
2023-03-30T02:19:39.082Z,2.57
2023-03-30T02:22:08.568Z,3.00
2023-03-30T02:24:36.987Z,2.30
2023-03-30T02:27:06.603Z,2.60
2023-03-30T02:29:35.652Z,2.47
2023-03-30T02:32:03.250Z,2.00
2023-03-30T02:34:43.347Z,2.67
2023-03-30T02:37:24.138Z,2.20
2023-03-30T02:40:00.218Z,2.53
2023-03-30T02:42:37.521Z,2.50
2023-03-30T02:45:16.712Z,2.90
2023-03-30T02:47:50.087Z,2.47
2023-03-30T02:50:20.075Z,2.50
2023-03-30T02:52:55.480Z,2.07
2023-03-30T02:55:26.438Z,3.20
2023-03-30T02:58:03.646Z,2.80
2023-03-30T03:00:37.223Z,2.37
2023-03-30T03:03:08.492Z,2.60
2023-03-30T03:05:36.228Z,3.07
2023-03-30T03:08:03.797Z,2.67
2023-03-30T03:10:31.422Z,2.50
2023-03-30T03:13:00.439Z,2.80
2023-03-30T03:15:28.878Z,2.90
2023-03-30T03:17:57.078Z,3.03
2023-03-30T03:20:28.546Z,2.57
2023-03-30T03:22:56.327Z,2.40
2023-03-30T03:25:24.045Z,3.33
2023-03-30T03:27:51.733Z,2.70
2023-03-30T03:30:20.656Z,2.80
2023-03-30T03:32:48.281Z,2.70
2023-03-30T03:35:16.072Z,2.60
2023-03-30T03:37:43.808Z,3.10
2023-03-30T03:40:12.218Z,2.53
2023-03-30T03:42:39.981Z,3.00
2023-03-30T03:45:08.482Z,2.60
2023-03-30T03:47:37.542Z,2.30
2023-03-30T03:50:09.311Z,2.40
2023-03-30T03:52:37.161Z,3.10
2023-03-30T03:55:06.215Z,2.70
2023-03-30T03:57:33.786Z,3.00
2023-03-30T04:00:01.555Z,2.50
2023-03-30T04:02:29.350Z,2.90
2023-03-30T04:04:58.647Z,2.37
2023-03-30T04:07:26.454Z,2.83
2023-03-30T04:09:53.997Z,2.90
2023-03-30T04:12:21.606Z,2.67
2023-03-30T04:14:49.205Z,2.77
2023-03-30T04:17:16.737Z,2.80
2023-03-30T04:19:44.353Z,2.60
2023-03-30T04:22:13.874Z,2.67
2023-03-30T04:24:41.729Z,2.50
2023-03-30T04:27:09.722Z,2.80
2023-03-30T04:29:40.785Z,2.93
2023-03-30T04:32:08.460Z,2.57
2023-03-30T04:34:36.109Z,2.90
2023-03-30T04:37:03.792Z,2.60
2023-03-30T04:39:32.856Z,3.43
2023-03-30T04:42:02.624Z,2.70
2023-03-30T04:44:30.624Z,2.53
2023-03-30T04:46:58.235Z,2.30
2023-03-30T04:49:25.961Z,2.57
2023-03-30T04:51:54.654Z,3.63
2023-03-30T04:54:22.414Z,3.50
2023-03-30T04:56:51.405Z,3.27
2023-03-30T04:59:19.273Z,3.30
2023-03-30T05:01:46.975Z,3.17
2023-03-30T05:04:14.729Z,2.97
2023-03-30T05:06:44.167Z,2.80
2023-03-30T05:09:11.798Z,3.07
2023-03-30T05:11:39.954Z,3.63
2023-03-30T05:14:08.915Z,3.57
2023-03-30T05:16:36.984Z,3.20
2023-03-30T05:19:04.617Z,3.00
2023-03-30T05:21:32.320Z,3.10
2023-03-30T05:23:59.946Z,2.90
2023-03-30T05:26:28.216Z,3.40
2023-03-30T05:28:55.839Z,3.30
2023-03-30T05:31:24.809Z,3.10
2023-03-30T05:33:52.994Z,2.97
2023-03-30T05:36:20.745Z,2.83
2023-03-30T05:38:48.368Z,2.93
2023-03-30T05:41:17.346Z,2.50
2023-03-30T05:43:44.986Z,3.20
2023-03-30T05:46:12.838Z,3.40
2023-03-30T05:48:41.885Z,3.53
2023-03-30T05:51:09.476Z,3.60
2023-03-30T05:53:37.507Z,4.10
2023-03-30T05:56:07.146Z,3.67
2023-03-30T05:58:34.775Z,3.37
2023-03-30T06:01:03.504Z,3.30
2023-03-30T06:03:31.564Z,3.47
2023-03-30T06:06:00.721Z,3.30
2023-03-30T06:08:28.917Z,3.47
2023-03-30T06:10:57.489Z,3.13
2023-03-30T06:13:25.409Z,3.10
2023-03-30T06:15:53.133Z,3.13
2023-03-30T06:18:21.041Z,3.40
2023-03-30T06:20:48.735Z,3.97
2023-03-30T06:23:18.177Z,3.00
2023-03-30T06:25:53.098Z,3.20
2023-03-30T06:28:21.167Z,3.17
2023-03-30T06:30:49.263Z,2.60
2023-03-30T06:33:17.540Z,3.17
2023-03-30T06:35:47.118Z,2.80
2023-03-30T06:38:14.807Z,3.27
2023-03-30T06:40:44.175Z,3.10
2023-03-30T06:43:17.929Z,2.93
2023-03-30T06:45:50.937Z,2.63
2023-03-30T06:48:19.699Z,3.03
2023-03-30T06:50:49.926Z,3.60
2023-03-30T06:53:17.649Z,2.40
2023-03-30T06:55:46.678Z,2.43
2023-03-30T06:58:14.348Z,2.27
2023-03-30T07:00:42.204Z,2.27
2023-03-30T07:03:10.153Z,2.40
2023-03-30T07:05:37.852Z,2.40
2023-03-30T07:08:05.869Z,2.43
2023-03-30T07:10:34.104Z,2.80
2023-03-30T07:13:03.292Z,2.40
2023-03-30T07:15:30.965Z,2.70
2023-03-30T07:17:58.565Z,2.43
2023-03-30T07:20:26.395Z,2.50
2023-03-30T07:22:54.068Z,2.60
2023-03-30T07:25:21.681Z,2.87
2023-03-30T07:27:49.540Z,2.90
2023-03-30T07:30:22.140Z,2.87
2023-03-30T07:32:51.462Z,2.50
2023-03-30T07:35:19.476Z,2.77
2023-03-30T07:37:50.892Z,2.90
2023-03-30T07:40:19.080Z,3.20
2023-03-30T07:42:47.528Z,2.17
2023-03-30T07:45:16.691Z,2.47
2023-03-30T07:47:45.844Z,2.77
2023-03-30T07:50:13.511Z,2.80
2023-03-30T07:52:41.100Z,2.77
2023-03-30T07:55:09.249Z,2.60
2023-03-30T07:57:37.004Z,2.90
2023-03-30T08:00:06.292Z,2.90
2023-03-30T08:02:33.969Z,2.80
2023-03-30T08:05:03.018Z,3.10
2023-03-30T08:07:30.850Z,2.53
2023-03-30T08:09:58.434Z,2.63
2023-03-30T08:12:26.086Z,2.13
2023-03-30T08:14:55.777Z,3.13
2023-03-30T08:17:23.593Z,2.27
2023-03-30T08:19:51.206Z,2.60
2023-03-30T08:22:20.994Z,2.73
2023-03-30T08:24:48.580Z,3.33
2023-03-30T08:27:16.251Z,2.60
2023-03-30T08:29:43.855Z,3.00
2023-03-30T08:32:11.500Z,2.97
2023-03-30T08:34:39.317Z,2.40
2023-03-30T08:37:07.600Z,2.90
2023-03-30T08:39:37.461Z,2.90
2023-03-30T08:42:16.978Z,2.50
2023-03-30T08:44:45.396Z,2.23
2023-03-30T08:47:14.623Z,2.60
2023-03-30T08:49:44.200Z,2.90
2023-03-30T08:52:14.857Z,2.60
2023-03-30T08:54:43.870Z,2.80
2023-03-30T08:57:20.800Z,2.77
2023-03-30T08:59:54.535Z,2.47
2023-03-30T09:02:24.448Z,2.23
2023-03-30T09:04:58.152Z,2.43
2023-03-30T09:07:27.745Z,2.57
2023-03-30T09:09:58.529Z,2.80
2023-03-30T09:12:34.241Z,3.30
2023-03-30T09:15:04.873Z,2.77
2023-03-30T09:17:34.613Z,2.93
2023-03-30T09:20:07.596Z,2.73
2023-03-30T09:22:40.171Z,2.60
2023-03-30T09:25:17.222Z,2.50
2023-03-30T09:27:52.381Z,2.40
2023-03-30T09:30:22.953Z,2.77
2023-03-30T09:32:58.673Z,3.20
2023-03-30T09:35:29.908Z,3.20
2023-03-30T09:37:57.703Z,2.93
2023-03-30T09:40:39.160Z,2.60
2023-03-30T09:43:12.151Z,2.70
2023-03-30T09:45:40.968Z,2.80
2023-03-30T09:48:10.219Z,2.87
2023-03-30T09:50:40.269Z,2.60
2023-03-30T09:53:11.660Z,2.57
2023-03-30T09:55:40.762Z,2.80
2023-03-30T09:58:14.447Z,2.07
2023-03-30T10:00:42.059Z,2.20
2023-03-30T10:03:14.921Z,2.13
2023-03-30T10:05:42.630Z,2.40
2023-03-30T10:08:23.677Z,2.93
2023-03-30T10:10:56.565Z,2.50
2023-03-30T10:13:28.477Z,2.20
2023-03-30T10:15:56.361Z,2.13
2023-03-30T10:18:26.597Z,2.00
2023-03-30T10:20:55.457Z,2.10
2023-03-30T10:23:24.613Z,2.17
2023-03-30T10:25:52.385Z,2.20
2023-03-30T10:28:27.228Z,2.50
2023-03-30T10:30:57.150Z,2.10
2023-03-30T10:33:25.446Z,2.00
2023-03-30T10:35:55.265Z,1.90
2023-03-30T10:38:23.754Z,2.33
2023-03-30T10:40:55.669Z,2.63
2023-03-30T10:43:29.336Z,2.13
2023-03-30T10:46:09.058Z,2.60
2023-03-30T10:49:03.340Z,2.17
2023-03-30T10:51:37.267Z,1.70
2023-03-30T10:54:09.978Z,1.77
2023-03-30T10:56:40.819Z,1.67
2023-03-30T10:59:26.066Z,1.80
2023-03-30T11:02:04.280Z,2.00
2023-03-30T11:04:36.964Z,1.90
2023-03-30T11:07:06.799Z,1.53
2023-03-30T11:09:39.545Z,1.70
2023-03-30T11:12:09.067Z,1.63
2023-03-30T11:14:44.109Z,1.40
2023-03-30T11:17:15.899Z,1.90
2023-03-30T11:19:45.190Z,1.43
2023-03-30T11:22:16.214Z,1.80
2023-03-30T11:24:44.320Z,1.63
2023-03-30T11:27:16.726Z,1.73
2023-03-30T11:29:48.000Z,1.50
2023-03-30T11:32:21.865Z,1.37
2023-03-30T11:34:56.376Z,1.73
2023-03-30T11:37:29.779Z,1.50
2023-03-30T11:40:02.251Z,1.70
2023-03-30T11:42:31.664Z,1.50
2023-03-30T11:45:02.015Z,1.50
2023-03-30T11:47:38.881Z,1.20
2023-03-30T11:50:14.363Z,1.63
2023-03-30T11:52:48.144Z,1.90
2023-03-30T11:55:40.573Z,1.70
2023-03-30T11:58:16.703Z,1.30
2023-03-30T12:00:50.563Z,1.70
2023-03-30T12:03:28.337Z,1.60
2023-03-30T12:06:01.710Z,1.70
2023-03-30T12:08:45.249Z,1.53
2023-03-30T12:11:17.229Z,1.40
2023-03-30T12:13:51.129Z,1.93
2023-03-30T12:16:28.140Z,1.60
2023-03-30T12:19:04.254Z,1.70
2023-03-30T12:21:33.423Z,1.83
2023-03-30T12:24:06.924Z,1.63
2023-03-30T12:26:37.840Z,1.50
2023-03-30T12:29:56.478Z,1.63
2023-03-30T12:32:20.907Z,1.30
2023-03-30T12:34:48.671Z,1.73
2023-03-30T12:37:18.215Z,1.30
2023-03-30T12:39:48.932Z,1.27
2023-03-30T12:42:26.425Z,1.43
2023-03-30T12:45:07.769Z,1.37
2023-03-30T12:47:48.819Z,1.40
2023-03-30T12:50:30.572Z,1.60
2023-03-30T12:53:08.680Z,1.30
2023-03-30T12:55:41.775Z,1.20
2023-03-30T12:58:28.519Z,1.20
2023-03-30T13:01:06.212Z,1.57
2023-03-30T13:03:41.473Z,1.00
2023-03-30T13:06:18.926Z,1.37
2023-03-30T13:08:46.552Z,1.10
2023-03-30T13:11:16.678Z,1.07
2023-03-30T13:13:50.334Z,1.83
2023-03-30T13:16:49.055Z,1.30
2023-03-30T13:19:26.163Z,1.90
2023-03-30T13:21:57.643Z,1.43
2023-03-30T13:24:28.452Z,1.50
2023-03-30T13:27:12.121Z,1.53
2023-03-30T13:29:39.735Z,1.37
2023-03-30T13:32:16.461Z,1.30
2023-03-30T13:35:07.561Z,1.30
2023-03-30T13:37:49.481Z,1.33
2023-03-30T13:40:30.738Z,1.33
2023-03-30T13:43:10.743Z,1.57
2023-03-30T13:45:45.781Z,1.20
2023-03-30T13:48:25.179Z,1.00
2023-03-30T13:50:56.647Z,1.40
2023-03-30T13:53:25.450Z,1.40
2023-03-30T13:55:53.182Z,1.50
2023-03-30T13:58:23.234Z,1.37
2023-03-30T14:00:52.563Z,1.33
2023-03-30T14:03:35.343Z,1.53
2023-03-30T14:06:08.492Z,1.53
2023-03-30T14:08:37.944Z,1.20
2023-03-30T14:11:12.890Z,1.07
2023-03-30T14:13:40.568Z,1.17
2023-03-30T14:16:08.828Z,0.83
2023-03-30T14:18:36.770Z,1.10
2023-03-30T14:21:10.926Z,0.90
2023-03-30T14:23:40.528Z,1.10
2023-03-30T14:26:14.497Z,1.57
2023-03-30T14:28:42.519Z,1.43
2023-03-30T14:31:15.583Z,1.20
2023-03-30T14:33:43.181Z,1.30
2023-03-30T14:36:15.351Z,1.40
2023-03-30T14:38:45.355Z,1.20
2023-03-30T14:41:16.781Z,1.33
2023-03-30T14:43:50.891Z,0.87
2023-03-30T14:46:18.670Z,1.77
2023-03-30T14:48:50.528Z,1.17
2023-03-30T14:51:27.981Z,1.23
2023-03-30T14:53:57.699Z,1.60
2023-03-30T14:56:25.937Z,1.30
2023-03-30T14:58:55.082Z,1.90
2023-03-30T15:01:31.009Z,1.27
2023-03-30T15:04:00.473Z,1.30
2023-03-30T15:06:30.762Z,1.57
2023-03-30T15:09:01.378Z,1.43
2023-03-30T15:11:29.444Z,1.20
2023-03-30T15:13:58.592Z,1.27
2023-03-30T15:16:29.147Z,1.40
2023-03-30T15:19:00.762Z,1.10
2023-03-30T15:21:31.866Z,1.30
2023-03-30T15:24:00.403Z,1.40
2023-03-30T15:26:28.555Z,1.63
2023-03-30T15:28:58.394Z,2.23
2023-03-30T15:31:27.468Z,1.60
2023-03-30T15:33:57.308Z,1.30
2023-03-30T15:36:26.440Z,1.37
2023-03-30T15:38:58.552Z,1.40
2023-03-30T15:41:45.183Z,1.50
2023-03-30T15:44:17.121Z,1.50
2023-03-30T15:46:45.029Z,1.50
2023-03-30T15:49:15.108Z,1.93
2023-03-30T15:51:44.473Z,1.50
2023-03-30T15:54:15.615Z,1.47
2023-03-30T15:56:48.706Z,1.50
2023-03-30T15:59:18.562Z,1.67
2023-03-30T16:01:50.326Z,2.17
2023-03-30T16:04:19.431Z,1.67
2023-03-30T16:06:47.670Z,1.70
2023-03-30T16:09:16.899Z,1.30
2023-03-30T16:11:46.317Z,1.70
2023-03-30T16:14:16.090Z,1.30
2023-03-30T16:16:44.489Z,1.60
2023-03-30T16:19:12.822Z,1.67
2023-03-30T16:21:40.860Z,1.37
2023-03-30T16:24:09.618Z,1.80
2023-03-30T16:26:38.585Z,1.40
2023-03-30T16:29:07.346Z,1.87
2023-03-30T16:31:35.711Z,1.17
2023-03-30T16:34:03.349Z,1.30
2023-03-30T16:36:30.972Z,1.70
2023-03-30T16:38:58.637Z,1.40
2023-03-30T16:41:26.853Z,1.73
2023-03-30T16:43:55.923Z,1.20
2023-03-30T16:46:24.234Z,1.60
2023-03-30T16:48:52.113Z,1.30
2023-03-30T16:51:20.150Z,1.30
2023-03-30T16:53:47.831Z,1.33
2023-03-30T16:56:19.872Z,1.43
2023-03-30T16:58:47.967Z,1.70
2023-03-30T17:01:18.627Z,1.87
2023-03-30T17:03:47.538Z,1.37
2023-03-30T17:06:16.809Z,1.60
2023-03-30T17:08:44.395Z,1.40
2023-03-30T17:11:13.406Z,1.40
2023-03-30T17:13:41.450Z,1.20
2023-03-30T17:16:10.089Z,1.60
2023-03-30T17:18:39.381Z,1.73
2023-03-30T17:21:09.492Z,1.10
2023-03-30T17:23:37.193Z,1.40
2023-03-30T17:26:04.992Z,2.03
2023-03-30T17:28:34.143Z,1.70
2023-03-30T17:31:03.547Z,2.03
2023-03-30T17:33:31.816Z,1.50
2023-03-30T17:36:03.969Z,1.57
2023-03-30T17:38:31.691Z,2.00
2023-03-30T17:40:59.576Z,1.90
2023-03-30T17:43:27.245Z,1.90
2023-03-30T17:45:54.974Z,2.17
2023-03-30T17:48:23.222Z,1.97
2023-03-30T17:50:51.678Z,1.70
2023-03-30T17:53:21.534Z,1.57
2023-03-30T17:55:51.801Z,1.67
2023-03-30T17:58:21.761Z,1.50
2023-03-30T18:00:50.552Z,1.93
2023-03-30T18:03:20.097Z,1.80
2023-03-30T18:05:48.313Z,2.00
2023-03-30T18:08:18.283Z,1.90
2023-03-30T18:10:48.402Z,1.60
2023-03-30T18:13:16.666Z,2.50
2023-03-30T18:15:45.886Z,1.90
2023-03-30T18:18:22.423Z,2.07
2023-03-30T18:20:51.255Z,2.10
2023-03-30T18:23:19.011Z,2.00
2023-03-30T18:25:47.966Z,1.97
2023-03-30T18:28:17.768Z,1.60
2023-03-30T18:30:45.619Z,2.57
2023-03-30T18:33:13.368Z,2.10
2023-03-30T18:35:41.224Z,2.47
2023-03-30T18:38:08.816Z,1.97
2023-03-30T18:40:38.106Z,1.67
2023-03-30T18:43:07.450Z,1.90
2023-03-30T18:45:37.997Z,1.80
2023-03-30T18:48:07.344Z,1.90
2023-03-30T18:50:36.145Z,1.83
2023-03-30T18:53:05.524Z,1.83
2023-03-30T18:55:34.724Z,1.77
2023-03-30T18:58:03.420Z,1.80
2023-03-30T19:00:34.368Z,1.67
2023-03-30T19:03:03.641Z,1.93
2023-03-30T19:05:33.170Z,1.60
2023-03-30T19:08:01.106Z,1.77
2023-03-30T19:10:30.845Z,1.60
2023-03-30T19:12:58.964Z,1.63
2023-03-30T19:15:28.205Z,1.60
2023-03-30T19:17:57.230Z,2.00
2023-03-30T19:20:26.946Z,1.53
2023-03-30T19:22:54.560Z,2.00
2023-03-30T19:25:23.854Z,1.50
2023-03-30T19:28:02.594Z,1.40
2023-03-30T19:30:32.873Z,1.00
2023-03-30T19:33:04.308Z,1.60
2023-03-30T19:35:32.246Z,1.50
2023-03-30T19:38:00.114Z,1.50
2023-03-30T19:40:28.234Z,1.30
2023-03-30T19:42:55.832Z,1.60
2023-03-30T19:45:23.758Z,1.70
2023-03-30T19:47:51.948Z,1.60
2023-03-30T19:50:23.759Z,1.33
2023-03-30T19:52:51.966Z,1.30
2023-03-30T19:55:20.859Z,1.20
2023-03-30T19:57:48.474Z,1.87
2023-03-30T20:00:18.316Z,1.70
2023-03-30T20:02:47.489Z,1.40
2023-03-30T20:05:15.607Z,1.63
2023-03-30T20:07:45.652Z,1.93
2023-03-30T20:10:15.541Z,1.50
2023-03-30T20:12:43.274Z,1.70
2023-03-30T20:15:12.248Z,1.40
2023-03-30T20:17:40.131Z,1.60
2023-03-30T20:20:12.669Z,1.50
2023-03-30T20:22:41.899Z,1.57
2023-03-30T20:25:12.899Z,1.90
2023-03-30T20:27:40.504Z,1.80
2023-03-30T20:30:09.407Z,1.80
2023-03-30T20:32:37.052Z,2.10
2023-03-30T20:35:05.625Z,2.20
2023-03-30T20:37:33.257Z,2.70
2023-03-30T20:40:09.491Z,2.10
2023-03-30T20:42:40.422Z,1.80
2023-03-30T20:45:09.310Z,1.77
2023-03-30T20:47:37.305Z,1.67
2023-03-30T20:50:05.967Z,2.03
2023-03-30T20:52:33.758Z,1.70
2023-03-30T20:55:01.372Z,1.80
2023-03-30T20:57:29.141Z,1.90
2023-03-30T20:59:58.126Z,1.83
2023-03-30T21:02:25.726Z,1.90
2023-03-30T21:04:56.641Z,2.07
2023-03-30T21:07:24.779Z,1.30
2023-03-30T21:09:52.462Z,2.07
2023-03-30T21:12:20.483Z,2.03
2023-03-30T21:14:48.196Z,1.77
2023-03-30T21:17:17.227Z,1.90
2023-03-30T21:19:44.849Z,1.93
2023-03-30T21:22:12.435Z,2.53
2023-03-30T21:24:40.093Z,1.73
2023-03-30T21:27:07.665Z,2.63
2023-03-30T21:29:35.350Z,1.57
2023-03-30T21:32:02.911Z,1.60
2023-03-30T21:34:31.975Z,1.70
2023-03-30T21:36:59.721Z,1.60
2023-03-30T21:39:27.646Z,1.97
2023-03-30T21:41:55.292Z,1.70
2023-03-30T21:44:23.157Z,1.93
2023-03-30T21:46:50.951Z,2.33
2023-03-30T21:49:18.558Z,1.50
2023-03-30T21:51:47.489Z,2.40
2023-03-30T21:54:15.941Z,2.17
2023-03-30T21:56:44.137Z,2.30
2023-03-30T21:59:12.050Z,1.60
2023-03-30T22:01:39.856Z,2.10
2023-03-30T22:04:07.641Z,2.00
2023-03-30T22:06:35.468Z,1.70
2023-03-30T22:09:04.623Z,1.93
2023-03-30T22:11:32.381Z,2.00
2023-03-30T22:14:00.209Z,1.70
2023-03-30T22:16:31.456Z,2.30
2023-03-30T22:18:59.653Z,2.30
2023-03-30T22:21:29.307Z,2.27
2023-03-30T22:23:57.390Z,2.27
2023-03-30T22:26:27.280Z,2.17
2023-03-30T22:28:55.037Z,2.20
2023-03-30T22:31:23.240Z,2.10
2023-03-30T22:33:52.022Z,2.07
2023-03-30T22:36:21.881Z,2.03
2023-03-30T22:38:51.068Z,2.57
2023-03-30T22:41:23.548Z,1.83
2023-03-30T22:43:53.292Z,1.87
2023-03-30T22:46:21.121Z,2.03
2023-03-30T22:48:51.599Z,2.27
2023-03-30T22:51:23.582Z,1.80
2023-03-30T22:53:51.338Z,2.00
2023-03-30T22:56:18.943Z,1.97
2023-03-30T22:58:47.658Z,2.50
2023-03-30T23:01:16.566Z,2.00
2023-03-30T23:03:44.292Z,1.73
2023-03-30T23:06:12.066Z,1.83
2023-03-30T23:08:40.028Z,2.10
2023-03-30T23:11:08.060Z,1.93
2023-03-30T23:13:37.146Z,2.73
2023-03-30T23:16:06.299Z,1.70
2023-03-30T23:18:36.080Z,1.70
2023-03-30T23:21:06.480Z,1.80
2023-03-30T23:23:35.292Z,1.63
2023-03-30T23:26:08.173Z,1.83
2023-03-30T23:28:37.050Z,2.07
2023-03-30T23:31:08.000Z,2.17
2023-03-30T23:33:37.143Z,1.90
2023-03-30T23:36:06.153Z,1.97
2023-03-30T23:38:34.047Z,2.53
2023-03-30T23:41:01.859Z,2.30
2023-03-30T23:43:29.450Z,2.10
2023-03-30T23:45:57.130Z,2.37
2023-03-30T23:48:25.001Z,1.63
2023-03-30T23:50:53.993Z,2.10
2023-03-30T23:53:21.548Z,2.40
2023-03-30T23:55:49.978Z,2.40
2023-03-30T23:58:18.236Z,2.07
